Data for 12/18/2008

Time Sea-Level Adjusted Pressure Absolute Pressure Temperature Relative Humidity Dew Point   
(mb) (inHg) (mb) (inHg) (C) (F) (%) (C) (F)
00:05 1009 29.8 839 24.78 -7.1 19.2 56 -14.5 5.8
00:10 1009 29.8 838 24.75 -7.3 18.9 56 -14.7 5.6
00:15 1009 29.8 838 24.75 -7.4 18.8 56 -14.6 5.7
00:20 1009 29.8 838 24.75 -7.3 18.8 58 -14.3 6.2
00:25 1009 29.8 838 24.75 -7.3 18.8 56 -14.6 5.6
00:30 1009 29.8 838 24.75 -7.3 18.8 54 -15 4.9
00:35 1009 29.8 838 24.75 -7.3 18.9 54 -15.2 4.7
00:40 1009 29.8 838 24.75 -7.2 19 54 -15.1 4.9
00:45 1009 29.8 838 24.75 -7.1 19.2 54 -14.9 5.1
00:50 1009 29.8 838 24.75 -7.1 19.2 55 -14.6 5.7
00:55 1009 29.8 838 24.75 -6.9 19.6 56 -14.2 6.4
01:00 1009 29.8 838 24.75 -6.9 19.6 56 -14.2 6.4
01:05 1009 29.8 838 24.75 -6.9 19.6 59 -13.7 7.4
01:10 1009 29.8 838 24.75 -7.2 19.1 58 -14.2 6.5
01:15 1009 29.8 838 24.75 -7.2 19.1 54 -14.9 5.1
01:20 1009 29.8 838 24.75 -7 19.3 54 -14.8 5.3
01:25 1009 29.8 838 24.75 -7 19.3 54 -14.9 5.2
01:30 1009 29.8 838 24.75 -7 19.4 56 -14.5 5.9
01:35 1009 29.8 838 24.75 -7.3 18.8 57 -14.4 6.1
01:40 1009 29.8 838 24.75 -7.5 18.5 57 -14.5 5.8
01:45 1009 29.8 838 24.75 -7.6 18.4 58 -14.5 5.9
01:50 1008 29.77 838 24.75 -7.6 18.3 59 -14.4 6.1
01:55 1008 29.77 838 24.75 -7.7 18.2 58 -14.6 5.8
02:00 1008 29.77 838 24.75 -7.6 18.3 58 -14.5 5.9
02:05 1008 29.77 838 24.75 -7.5 18.5 57 -14.7 5.5
02:10 1008 29.77 838 24.75 -7.5 18.5 57 -14.6 5.8
02:15 1008 29.77 838 24.75 -7.6 18.4 57 -14.6 5.7
02:20 1008 29.77 837 24.72 -7.6 18.4 57 -14.6 5.7
02:25 1008 29.77 837 24.72 -7.5 18.4 57 -14.6 5.7
02:30 1008 29.77 837 24.72 -7.5 18.4 57 -14.6 5.7
02:35 1008 29.77 837 24.72 -7.5 18.5 57 -14.7 5.5
02:40 1008 29.77 837 24.72 -7.2 19.1 53 -15.2 4.6
02:45 1008 29.77 837 24.72 -7.1 19.3 52 -15.3 4.5
02:50 1008 29.77 837 24.72 -7 19.5 53 -15 4.9
02:55 1008 29.77 837 24.72 -6.9 19.6 53 -15 5.1
03:00 1008 29.77 837 24.72 -6.9 19.6 52 -15.2 4.7
03:05 1008 29.77 837 24.72 -6.8 19.7 51 -15.3 4.5
03:10 1008 29.77 837 24.72 -6.8 19.8 52 -15.1 4.8
03:15 1008 29.77 837 24.72 -6.7 19.9 52 -15.1 4.8
03:20 1008 29.77 837 24.72 -6.9 19.7 53 -15 5.1
03:25 1008 29.77 837 24.72 -6.9 19.6 51 -15.4 4.2
03:30 1008 29.77 837 24.72 -6.8 19.8 51 -15.3 4.5
03:35 1008 29.77 837 24.72 -6.7 19.9 52 -15.1 4.8
03:40 1008 29.77 837 24.72 -6.7 19.9 51 -15.2 4.6
03:45 1008 29.77 837 24.72 -6.7 19.9 51 -15.2 4.6
03:50 1008 29.77 837 24.72 -6.7 19.9 52 -15.1 4.8
03:55 1008 29.77 837 24.72 -6.8 19.8 51 -15.2 4.6
04:00 1008 29.77 837 24.72 -6.8 19.7 53 -14.9 5.2
04:05 1007 29.74 837 24.72 -7 19.4 54 -14.8 5.3
04:10 1007 29.74 837 24.72 -7.1 19.1 55 -14.8 5.3
04:15 1007 29.74 837 24.72 -7.1 19.2 55 -14.8 5.3
04:20 1007 29.74 837 24.72 -7.1 19.2 55 -14.7 5.5
04:25 1007 29.74 836 24.69 -7.2 19.1 54 -14.9 5.1
04:30 1007 29.74 836 24.69 -7.1 19.2 55 -14.8 5.4
04:35 1007 29.74 836 24.69 -7 19.4 53 -15.1 4.8
04:40 1007 29.74 836 24.69 -6.7 19.9 52 -15.1 4.9
04:45 1007 29.74 836 24.69 -6.5 20.3 51 -15 4.9
04:50 1007 29.74 836 24.69 -6.4 20.5 50 -15.2 4.6
04:55 1007 29.74 836 24.69 -6.5 20.4 51 -15.1 4.8
05:00 1007 29.74 836 24.69 -6.5 20.3 50 -15.3 4.5
05:05 1007 29.74 836 24.69 -6.4 20.5 49 -15.4 4.3
05:10 1007 29.74 836 24.69 -6.3 20.7 50 -15.2 4.7
05:15 1007 29.74 836 24.69 -6.2 20.8 49 -15.3 4.4
05:20 1007 29.74 836 24.69 -6.3 20.7 48 -15.5 4.1
05:25 1007 29.74 836 24.69 -6.3 20.7 50 -15.1 4.8
05:30 1007 29.74 836 24.69 -6.3 20.7 49 -15.4 4.3
05:35 1007 29.74 836 24.69 -6.2 20.8 49 -15.4 4.3
05:40 1007 29.74 836 24.69 -6.2 20.8 49 -15.3 4.5
05:45 1007 29.74 836 24.69 -6.2 20.9 48 -15.5 4.1
05:50 1007 29.74 836 24.69 -6.2 20.9 48 -15.4 4.3
05:55 1007 29.74 836 24.69 -6.1 20.9 47 -15.7 3.8
06:00 1007 29.74 836 24.69 -6.1 21.1 47 -15.7 3.8
06:05 1007 29.74 836 24.69 -6.1 21 48 -15.3 4.4
06:10 1007 29.74 836 24.69 -6.2 20.9 49 -15.2 4.6
06:15 1007 29.74 836 24.69 -6.3 20.7 48 -15.6 3.9
06:20 1007 29.74 836 24.69 -6.3 20.6 49 -15.5 4.2
06:25 1007 29.74 836 24.69 -6.4 20.5 48 -15.6 4
06:30 1007 29.74 836 24.69 -6.3 20.6 48 -15.6 4
06:35 1007 29.74 836 24.69 -6.4 20.5 48 -15.8 3.6
06:40 1007 29.74 836 24.69 -6.3 20.6 48 -15.6 4
06:45 1007 29.74 836 24.69 -6.4 20.5 48 -15.6 3.9
06:50 1007 29.74 836 24.69 -6.5 20.4 49 -15.6 4
06:55 1007 29.74 836 24.69 -6.4 20.4 47 -15.9 3.4
07:00 1007 29.74 836 24.69 -6.5 20.4 48 -15.6 3.9
07:05 1006 29.71 836 24.69 -6.5 20.3 48 -15.8 3.6
07:10 1006 29.71 836 24.69 -6.6 20.2 48 -15.8 3.5
07:15 1006 29.71 835 24.66 -6.6 20.1 49 -15.6 3.9
07:20 1006 29.71 835 24.66 -6.7 19.9 49 -15.8 3.5
07:25 1006 29.71 836 24.69 -6.8 19.7 49 -15.9 3.4
07:30 1006 29.71 836 24.69 -7 19.5 50 -15.7 3.8
07:35 1006 29.71 836 24.69 -7 19.4 49 -15.9 3.4
07:40 1006 29.71 836 24.69 -7 19.5 49 -16 3.2
07:45 1006 29.71 836 24.69 -6.9 19.5 49 -16 3.3
07:50 1006 29.71 836 24.69 -6.9 19.6 50 -15.7 3.8
07:55 1006 29.71 836 24.69 -6.9 19.6 49 -16 3.2
08:00 1006 29.71 836 24.69 -6.9 19.6 49 -16 3.3
08:05 1006 29.71 836 24.69 -6.8 19.7 48 -16.2 2.9
08:10 1007 29.74 836 24.69 -6.8 19.8 48 -16 3.1
08:15 1007 29.74 836 24.69 -6.8 19.7 49 -15.9 3.3
08:20 1007 29.74 836 24.69 -6.8 19.8 48 -16 3.2
08:25 1006 29.71 836 24.69 -6.8 19.8 48 -16 3.3
08:30 1006 29.71 836 24.69 -6.8 19.8 48 -16 3.1
08:35 1006 29.71 836 24.69 -6.8 19.8 48 -16.1 3.1
08:40 1006 29.71 836 24.69 -6.9 19.6 50 -15.7 3.7
08:45 1006 29.71 836 24.69 -7 19.4 48 -16.3 2.7
08:50 1006 29.71 836 24.69 -7 19.4 50 -15.9 3.4
08:55 1006 29.71 835 24.66 -7 19.3 49 -16 3.2
09:00 1006 29.71 835 24.66 -7.1 19.1 50 -15.8 3.5
09:05 1006 29.71 835 24.66 -7.2 19 50 -16 3.2
09:10 1006 29.71 835 24.66 -7.2 19.1 50 -16 3.2
09:15 1006 29.71 835 24.66 -7 19.4 48 -16.2 2.8
09:20 1006 29.71 835 24.66 -6.8 19.7 47 -16.3 2.6
09:25 1006 29.71 835 24.66 -6.8 19.8 47 -16.2 2.8
09:30 1006 29.71 835 24.66 -6.7 19.9 47 -16.2 2.8
09:35 1006 29.71 835 24.66 -6.6 20.2 45 -16.8 1.8
09:40 1006 29.71 835 24.66 -6.4 20.5 44 -16.7 2
09:45 1006 29.71 835 24.66 -6.3 20.7 45 -16.3 2.6
09:50 1006 29.71 835 24.66 -6.2 20.9 44 -16.5 2.3
09:55 1006 29.71 835 24.66 -6.1 21 43 -16.7 2
10:00 1006 29.71 836 24.69 -6.1 21.1 44 -16.5 2.3
10:05 1006 29.71 836 24.69 -6 21.2 44 -16.5 2.3
10:10 1006 29.71 836 24.69 -5.9 21.4 43 -16.6 2.1
10:15 1006 29.71 836 24.69 -5.8 21.5 43 -16.6 2.2
10:20 1006 29.71 836 24.69 -5.6 21.8 43 -16.2 2.8
10:25 1006 29.71 836 24.69 -5.7 21.8 50 -14.6 5.7
10:30 1007 29.74 836 24.69 -6.2 20.9 52 -14.5 6
10:35 1007 29.74 836 24.69 -6 21.2 53 -14.1 6.6
10:40 1007 29.74 836 24.69 -5.8 21.6 52 -14.2 6.5
10:45 1007 29.74 836 24.69 -5.9 21.4 53 -13.9 7
10:50 1007 29.74 836 24.69 -5.8 21.5 52 -14.2 6.4
10:55 1007 29.74 836 24.69 -6 21.2 54 -14 6.8
11:00 1007 29.74 836 24.69 -5.9 21.4 52 -14.1 6.5
11:05 1007 29.74 836 24.69 -5.9 21.4 50 -14.6 5.7
11:10 1006 29.71 836 24.69 -6.5 20.3 53 -14.6 5.7
11:15 1006 29.71 836 24.69 -6.8 19.7 54 -14.5 5.8
11:20 1006 29.71 836 24.69 -6.6 20.2 54 -14.5 5.9
11:25 1006 29.71 836 24.69 -6.5 20.2 54 -14.3 6.3
11:30 1006 29.71 835 24.66 -6.4 20.5 52 -14.8 5.4
11:35 1006 29.71 835 24.66 -6.6 20.1 57 -13.8 7.1
11:40 1006 29.71 835 24.66 -6.3 20.6 55 -14.1 6.7
11:45 1006 29.71 835 24.66 -5.9 21.4 53 -14 6.9
11:50 1006 29.71 835 24.66 -6 21.2 55 -13.7 7.3
11:55 1006 29.71 835 24.66 -6.1 20.9 56 -13.7 7.4
12:00 1006 29.71 835 24.66 -6 21.2 54 -13.8 7.2
12:05 1006 29.71 835 24.66 -6.3 20.7 58 -13.3 8.1
12:10 1006 29.71 835 24.66 -6.6 20.2 59 -13.3 8.1
12:15 1006 29.71 835 24.66 -6.2 20.9 58 -13.2 8.2
12:20 1006 29.71 835 24.66 -6.1 21 58 -13 8.6
12:25 1006 29.71 835 24.66 -6.1 21 57 -13.3 8.1
12:30 1006 29.71 835 24.66 -5.8 21.5 56 -13.3 8
12:35 1006 29.71 835 24.66 -5.8 21.5 56 -13.2 8.3
12:40 1006 29.71 835 24.66 -5.7 21.7 55 -13.5 7.7
12:45 1006 29.71 835 24.66 -5.7 21.8 55 -13.3 8
12:50 1005 29.68 835 24.66 -5.7 21.7 55 -13.5 7.7
12:55 1005 29.68 835 24.66 -5.8 21.6 55 -13.4 7.8
13:00 1005 29.68 835 24.66 -6.3 20.7 57 -13.5 7.8
13:05 1005 29.68 835 24.66 -6.8 19.7 59 -13.5 7.7
13:10 1006 29.71 835 24.66 -7 19.4 61 -13.4 7.8
13:15 1006 29.71 835 24.66 -7 19.4 58 -14 6.8
13:20 1006 29.71 835 24.66 -7.4 18.6 58 -14.2 6.4
13:25 1006 29.71 835 24.66 -7 19.4 56 -14.3 6.3
13:30 1006 29.71 835 24.66 -7 19.4 56 -14.4 6.1
13:35 1006 29.71 835 24.66 -6.5 20.3 54 -14.4 6.1
13:40 1006 29.71 835 24.66 -6 21.2 50 -14.7 5.5
13:45 1006 29.71 835 24.66 -5.6 21.9 50 -14.5 5.9
13:50 1005 29.68 835 24.66 -5.8 21.5 50 -14.6 5.8
13:55 1005 29.68 835 24.66 -5.5 22 49 -14.7 5.5
14:00 1005 29.68 835 24.66 -5.5 22.1 51 -14 6.7
14:05 1005 29.68 834 24.63 -5.5 22 51 -14.2 6.5
14:10 1005 29.68 834 24.63 -5.8 21.6 52 -14 6.8
14:15 1005 29.68 834 24.63 -5.7 21.7 50 -14.5 5.9
14:20 1005 29.68 834 24.63 -5.4 22.4 49 -14.4 6.1
14:25 1005 29.68 835 24.66 -5 23 49 -14.1 6.5
14:30 1005 29.68 834 24.63 -4.9 23.1 50 -13.8 7.1
14:35 1005 29.68 834 24.63 -4.9 23.1 51 -13.5 7.7
14:40 1005 29.68 834 24.63 -4.9 23.1 52 -13.4 8
14:45 1005 29.68 834 24.63 -5.6 21.9 54 -13.5 7.6
14:50 1005 29.68 834 24.63 -6.1 21.1 55 -13.7 7.4
14:55 1005 29.68 834 24.63 -6.1 21 55 -13.7 7.3
15:00 1005 29.68 834 24.63 -6.3 20.6 55 -13.9 6.9
15:05 1005 29.68 834 24.63 -6.5 20.4 57 -13.6 7.5
15:10 1005 29.68 834 24.63 -6.4 20.5 57 -13.7 7.4
15:15 1005 29.68 834 24.63 -6.6 20.2 57 -13.7 7.4
15:20 1005 29.68 834 24.63 -6.5 20.2 58 -13.6 7.6
15:25 1005 29.68 834 24.63 -6.4 20.4 57 -13.7 7.3
15:30 1005 29.68 834 24.63 -6.6 20.2 57 -13.7 7.4
15:35 1005 29.68 834 24.63 -6.7 19.9 58 -13.8 7.2
15:40 1005 29.68 834 24.63 -6.9 19.7 58 -13.9 7
15:45 1005 29.68 834 24.63 -6.8 19.7 58 -13.7 7.3
15:50 1005 29.68 834 24.63 -6.6 20 56 -13.9 6.9
15:55 1005 29.68 834 24.63 -6.6 20.2 56 -14 6.7
16:00 1005 29.68 834 24.63 -6.6 20.1 57 -13.8 7.2
16:05 1005 29.68 834 24.63 -6.5 20.3 57 -13.7 7.4
16:10 1005 29.68 834 24.63 -6.5 20.3 57 -13.6 7.5
16:15 1005 29.68 834 24.63 -6.5 20.3 56 -13.9 6.9
16:20 1005 29.68 834 24.63 -6.4 20.5 55 -13.9 6.9
16:25 1005 29.68 834 24.63 -6.4 20.6 55 -13.9 6.9
16:30 1005 29.68 834 24.63 -6.2 20.8 54 -14.1 6.5
16:35 1005 29.68 834 24.63 -6.3 20.6 54 -14.1 6.6
16:40 1005 29.68 834 24.63 -6.5 20.3 56 -14 6.8
16:45 1005 29.68 834 24.63 -6.6 20.1 55 -14.2 6.4
16:50 1005 29.68 834 24.63 -6.6 20.1 55 -14.2 6.5
16:55 1005 29.68 834 24.63 -6.7 19.9 56 -14.1 6.6
17:00 1005 29.68 834 24.63 -6.7 19.9 56 -14.2 6.4
17:05 1005 29.68 834 24.63 -6.6 20.1 55 -14.3 6.3
17:10 1005 29.68 834 24.63 -6.7 20 54 -14.5 5.8
17:15 1005 29.68 834 24.63 -6.6 20.1 53 -14.6 5.8
17:20 1005 29.68 834 24.63 -6.3 20.6 53 -14.5 5.8
17:25 1005 29.68 834 24.63 -6.3 20.6 52 -14.5 5.8
17:30 1005 29.68 834 24.63 -6.2 20.8 51 -14.7 5.5
17:35 1005 29.68 834 24.63 -6.1 21 50 -15 5
17:40 1005 29.68 834 24.63 -5.9 21.3 51 -14.6 5.7
17:45 1005 29.68 834 24.63 -6.1 21 50 -14.9 5.2
17:50 1005 29.68 834 24.63 -6.1 21.1 51 -14.7 5.5
17:55 1005 29.68 834 24.63 -6 21.2 49 -15 5.1
18:00 1005 29.68 834 24.63 -5.9 21.3 51 -14.6 5.7
18:05 1005 29.68 834 24.63 -6 21.3 51 -14.6 5.7
18:10 1005 29.68 834 24.63 -6 21.2 51 -14.6 5.7
18:15 1005 29.68 834 24.63 -5.9 21.5 51 -14.4 6.1
18:20 1005 29.68 835 24.66 -5.9 21.4 52 -14.2 6.4
18:25 1005 29.68 835 24.66 -5.9 21.3 57 -13.2 8.3
18:30 1005 29.68 835 24.66 -6.4 20.5 58 -13.3 8.1
18:35 1005 29.68 835 24.66 -6.8 19.8 62 -13 8.6
18:40 1005 29.68 835 24.66 -7.4 18.8 63 -13.3 8.1
18:45 1005 29.68 835 24.66 -7.7 18.2 65 -13.2 8.3
18:50 1005 29.68 834 24.63 -7.9 17.8 65 -13.4 7.8
18:55 1005 29.68 834 24.63 -8.3 17.2 67 -13.3 8
19:00 1005 29.68 834 24.63 -8.4 16.8 64 -14.2 6.5
19:05 1005 29.68 834 24.63 -7.7 18.1 59 -14.3 6.2
19:10 1005 29.68 834 24.63 -6.8 19.8 54 -14.7 5.5
19:15 1005 29.68 835 24.66 -6.3 20.6 57 -13.5 7.7
19:20 1005 29.68 835 24.66 -6.6 20.1 53 -14.6 5.7
19:25 1005 29.68 834 24.63 -6 21.2 51 -14.7 5.6
19:30 1005 29.68 834 24.63 -5.7 21.7 50 -14.5 5.9
19:35 1005 29.68 834 24.63 -5.7 21.7 50 -14.5 5.9
19:40 1005 29.68 834 24.63 -5.7 21.8 50 -14.6 5.6
19:45 1005 29.68 834 24.63 -5.7 21.7 50 -14.7 5.6
19:50 1005 29.68 834 24.63 -5.8 21.6 50 -14.7 5.6
19:55 1005 29.68 834 24.63 -5.8 21.6 49 -14.8 5.4
20:00 1005 29.68 834 24.63 -5.7 21.7 49 -14.8 5.4
20:05 1005 29.68 834 24.63 -5.9 21.4 51 -14.6 5.8
20:10 1005 29.68 834 24.63 -6 21.2 51 -14.6 5.7
20:15 1005 29.68 834 24.63 -6 21.3 51 -14.6 5.7
20:20 1005 29.68 834 24.63 -5.8 21.5 49 -14.8 5.3
20:25 1005 29.68 834 24.63 -5.8 21.6 50 -14.7 5.6
20:30 1005 29.68 834 24.63 -5.9 21.4 51 -14.6 5.8
20:35 1005 29.68 834 24.63 -6 21.1 50 -14.9 5.1
20:40 1005 29.68 834 24.63 -6 21.2 49 -14.9 5.1
20:45 1005 29.68 834 24.63 -5.6 21.9 47 -15.1 4.8
20:50 1005 29.68 834 24.63 -5.5 22.1 47 -15.2 4.7
20:55 1005 29.68 834 24.63 -5.4 22.2 47 -15.2 4.7
21:00 1005 29.68 834 24.63 -5.3 22.4 46 -15.3 4.5
21:05 1005 29.68 834 24.63 -5.3 22.4 46 -15.2 4.6
21:10 1005 29.68 834 24.63 -5.3 22.5 46 -15.2 4.7
21:15 1005 29.68 834 24.63 -5.3 22.5 48 -14.8 5.4
21:20 1005 29.68 834 24.63 -5.7 21.8 49 -14.9 5.2
21:25 1005 29.68 834 24.63 -5.7 21.7 48 -15.2 4.7
21:30 1005 29.68 834 24.63 -5.7 21.8 48 -15 5
21:35 1005 29.68 834 24.63 -5.2 22.7 46 -15.1 4.9
21:40 1005 29.68 834 24.63 -4.9 23.2 46 -14.8 5.3
21:45 1005 29.68 834 24.63 -4.6 23.6 47 -14.4 6.1
21:50 1005 29.68 834 24.63 -4.4 24 48 -13.8 7.1
21:55 1005 29.68 834 24.63 -4.3 24.3 50 -13.3 8.1
22:00 1005 29.68 834 24.63 -4.4 24 47 -14.3 6.3
22:05 1005 29.68 834 24.63 -4.6 23.8 48 -13.9 6.9
22:10 1005 29.68 834 24.63 -3.9 25 44 -14.3 6.2
22:15 1005 29.68 834 24.63 -3.3 26 44 -13.9 7
22:20 1005 29.68 834 24.63 -3.4 25.9 44 -14.1 6.7
22:25 1005 29.68 834 24.63 -3.1 26.5 42 -14.1 6.6
22:30 1005 29.68 834 24.63 -2.9 26.9 44 -13.5 7.7
22:35 1005 29.68 834 24.63 -3.2 26.2 46 -13.3 8.1
22:40 1005 29.68 834 24.63 -4.2 24.5 48 -13.5 7.7
22:45 1005 29.68 834 24.63 -5 23 50 -13.9 7
22:50 1005 29.68 834 24.63 -4.4 24.1 48 -13.9 7
22:55 1005 29.68 834 24.63 -4 24.8 47 -13.7 7.4
23:00 1005 29.68 834 24.63 -3.9 24.9 47 -13.8 7.2
23:05 1005 29.68 834 24.63 -4 24.8 45 -14.2 6.4
23:10 1005 29.68 834 24.63 -4 24.8 46 -14 6.8
23:15 1005 29.68 834 24.63 -4.3 24.3 47 -13.9 7
23:20 1005 29.68 834 24.63 -4.3 24.3 48 -13.6 7.5
23:25 1005 29.68 834 24.63 -4.2 24.5 47 -13.9 7
23:30 1005 29.68 834 24.63 -4 24.9 47 -13.7 7.4
23:35 1005 29.68 834 24.63 -3.8 25.2 48 -13.2 8.2
23:40 1005 29.68 834 24.63 -4.3 24.2 51 -13 8.6
23:45 1005 29.68 834 24.63 -4.4 24.1 52 -12.8 8.9
23:50 1005 29.68 834 24.63 -4.5 23.9 53 -12.7 9.1
23:55 1005 29.68 834 24.63 -4.3 24.3 52 -12.8 9
24:00 1005 29.68 834 24.63 -4.1 24.6 50 -13 8.6